Time;durP1;ratioP1;P1;durP2;ratioP2;P2;SDS_P1;SDS_P2;PMS_P1;PMS_P2;Temp;Humidity;BMP_temperature;BMP_pressure;BME280_temperature;BME280_humidity;BME280_pressure;Samples;Min_cycle;Max_cycle;Signal;HPM_P1;HPM_P2
2021/01/19 00:00:09;;;;;;;5.17;2.43;;;;;;;3.14;76.84;98456.84;6143790;23;20842;-83
2021/01/19 00:02:36;;;;;;;4.67;3.13;;;;;;;3.15;76.79;98457.72;6143634;23;20186;-83
2021/01/19 00:05:03;;;;;;;7.20;2.60;;;;;;;3.16;76.94;98444.84;6142760;23;20191;-84
2021/01/19 00:07:29;;;;;;;5.93;2.83;;;;;;;3.08;76.89;98431.94;6142787;23;20241;-84
2021/01/19 00:09:56;;;;;;;4.60;2.90;;;;;;;2.99;77.27;98442.28;6144852;23;20219;-82
2021/01/19 00:12:22;;;;;;;6.20;2.83;;;;;;;3.11;76.66;98451.72;6145439;23;20270;-84
2021/01/19 00:14:50;;;;;;;4.73;2.60;;;;;;;3.09;76.65;98450.88;6142287;23;20207;-82
2021/01/19 00:17:17;;;;;;;5.23;2.33;;;;;;;3.12;76.49;98453.41;6147518;23;20552;-82
2021/01/19 00:19:44;;;;;;;5.40;3.10;;;;;;;3.03;76.84;98446.59;6142219;23;20342;-84
2021/01/19 00:22:10;;;;;;;4.40;2.83;;;;;;;3.08;76.77;98437.09;6143267;23;20306;-84
2021/01/19 00:24:36;;;;;;;5.93;2.60;;;;;;;3.05;76.90;98436.25;6139701;23;20183;-83
2021/01/19 00:27:03;;;;;;;3.93;2.90;;;;;;;3.05;76.76;98429.41;6139313;23;20226;-84
2021/01/19 00:29:29;;;;;;;4.50;2.70;;;;;;;2.93;77.54;98442.34;6137869;23;20329;-84
2021/01/19 00:31:55;;;;;;;6.50;3.07;;;;;;;3.01;77.57;98440.56;6137900;23;20194;-84
2021/01/19 00:34:22;;;;;;;4.10;2.50;;;;;;;3.05;77.01;98437.13;6137447;23;20354;-84
2021/01/19 00:36:49;;;;;;;7.63;3.07;;;;;;;3.00;77.16;98446.59;6138620;23;20184;-85
2021/01/19 00:39:16;;;;;;;5.90;2.97;;;;;;;3.08;77.04;98438.84;6137414;23;20276;-84
2021/01/19 00:41:42;;;;;;;2.33;1.90;;;;;;;3.03;76.93;98446.59;6135832;23;20198;-84
2021/01/19 00:44:08;;;;;;;5.83;2.47;;;;;;;3.04;77.17;98447.44;6135643;23;20212;-84
2021/01/19 00:46:34;;;;;;;6.60;3.10;;;;;;;3.02;77.00;98436.28;6138314;23;20270;-83
2021/01/19 00:49:01;;;;;;;3.47;2.73;;;;;;;3.03;77.17;98446.59;6135801;23;20188;-84
2021/01/19 00:51:32;;;;;;;5.20;3.37;;;;;;;2.95;76.82;98442.34;6133317;23;20199;-82
2021/01/19 00:53:59;;;;;;;5.70;2.83;;;;;;;3.02;77.07;98441.44;6139240;23;20238;-84
2021/01/19 00:56:26;;;;;;;4.30;2.53;;;;;;;2.99;77.17;98441.44;6136232;23;20187;-84
2021/01/19 00:58:52;;;;;;;3.97;2.53;;;;;;;2.97;77.17;98440.59;6137723;23;20184;-84
2021/01/19 01:01:18;;;;;;;2.97;1.83;;;;;;;2.86;77.73;98440.63;6138982;23;20210;-83
2021/01/19 01:03:44;;;;;;;4.53;2.50;;;;;;;2.99;77.50;98438.88;6138868;23;20194;-83
2021/01/19 01:06:15;;;;;;;5.83;2.87;;;;;;;2.99;77.32;98431.16;6138533;23;20184;-85
2021/01/19 01:08:41;;;;;;;6.60;3.00;;;;;;;3.02;77.18;98436.28;6139765;23;20267;-84
2021/01/19 01:11:08;;;;;;;4.70;2.57;;;;;;;3.01;77.08;98440.56;6136582;23;21042;-84
2021/01/19 01:13:35;;;;;;;6.50;2.90;;;;;;;3.07;77.00;98424.25;6135488;23;20211;-83
2021/01/19 01:16:02;;;;;;;3.47;2.50;;;;;;;3.10;77.13;98424.22;6137689;23;20184;-83
2021/01/19 01:18:30;;;;;;;5.13;2.63;;;;;;;3.06;77.00;98422.53;6109905;23;20188;-84
2021/01/19 01:20:56;;;;;;;4.60;2.50;;;;;;;3.07;76.93;98413.94;6139682;23;20215;-84
2021/01/19 01:23:23;;;;;;;3.97;2.57;;;;;;;3.03;76.93;98427.69;6135936;23;20243;-85
2021/01/19 01:25:49;;;;;;;6.80;2.33;;;;;;;2.97;76.77;98415.69;6139437;23;20183;-84
2021/01/19 01:28:16;;;;;;;5.03;2.83;;;;;;;3.02;76.87;98421.69;6136191;23;20198;-82
2021/01/19 01:30:43;;;;;;;4.57;2.60;;;;;;;3.03;77.33;98418.25;6130524;23;20971;-83
2021/01/19 01:33:09;;;;;;;4.80;2.40;;;;;;;3.03;76.93;98420.84;6137980;23;20667;-83
2021/01/19 01:35:35;;;;;;;3.77;2.73;;;;;;;2.99;77.14;98419.09;6137165;23;20623;-83
2021/01/19 01:38:02;;;;;;;4.20;2.60;;;;;;;2.94;77.14;98417.41;6135395;23;20733;-84
2021/01/19 01:40:28;;;;;;;5.30;2.90;;;;;;;2.88;77.81;98407.97;6135725;23;20230;-83
2021/01/19 01:42:56;;;;;;;6.00;2.67;;;;;;;2.85;77.34;98401.13;6135520;23;20190;-84
2021/01/19 01:45:24;;;;;;;4.33;2.40;;;;;;;2.84;77.76;98395.97;6138970;23;20196;-83
2021/01/19 01:47:51;;;;;;;3.87;2.60;;;;;;;2.76;78.14;98385.72;6138102;23;20188;-84
2021/01/19 01:50:18;;;;;;;4.93;2.77;;;;;;;2.78;77.88;98402.03;6137781;23;20204;-83
2021/01/19 01:52:44;;;;;;;5.07;2.83;;;;;;;2.77;77.92;98402.03;6135140;23;20187;-83
2021/01/19 01:55:11;;;;;;;4.20;2.43;;;;;;;2.73;77.88;98398.59;6135834;23;20211;-84
2021/01/19 01:57:38;;;;;;;5.07;3.03;;;;;;;2.71;77.89;98397.75;6135133;23;20222;-84
2021/01/19 02:00:06;;;;;;;3.93;2.70;;;;;;;2.72;78.16;98391.75;6138650;23;20234;-84
2021/01/19 02:02:33;;;;;;;5.53;2.70;;;;;;;2.72;77.84;98402.03;6139001;23;20211;-83
2021/01/19 02:04:59;;;;;;;3.87;2.57;;;;;;;2.69;77.86;98387.44;6133727;23;20302;-82
2021/01/19 02:07:37;;;;;;;4.47;2.63;;;;;;;2.66;78.03;98389.16;6138462;23;20678;-85
2021/01/19 02:10:10;;;;;;;4.67;2.40;;;;;;;2.64;78.23;98384.00;6139391;23;20204;-84
2021/01/19 02:12:45;;;;;;;4.27;2.37;;;;;;;2.69;77.72;98386.59;6138506;23;20290;-82
2021/01/19 02:15:12;;;;;;;4.57;2.70;;;;;;;2.67;77.93;98372.88;6137969;23;20686;-83
2021/01/19 02:17:44;;;;;;;4.57;2.50;;;;;;;2.68;78.06;98377.13;6132198;23;20184;-83
2021/01/19 02:20:53;;;;;;;6.43;2.57;;;;;;;2.63;78.08;98376.31;6138505;23;20278;-84
2021/01/19 02:23:23;;;;;;;5.13;2.10;;;;;;;2.68;78.18;98374.56;6124365;23;20245;-84
2021/01/19 02:26:04;;;;;;;3.60;2.10;;;;;;;2.68;77.84;98371.97;6138694;23;20278;-84
2021/01/19 02:28:34;;;;;;;4.13;2.10;;;;;;;2.68;77.81;98365.13;6137579;23;20202;-84
2021/01/19 02:31:33;;;;;;;8.63;2.17;;;;;;;2.69;77.73;98373.72;6138631;23;20628;-82
2021/01/19 02:34:19;;;;;;;4.27;2.10;;;;;;;2.72;77.66;98380.56;6132180;23;20219;-84
2021/01/19 02:36:51;;;;;;;6.87;2.50;;;;;;;2.74;77.73;98371.09;6138844;23;20899;-83
2021/01/19 02:39:25;;;;;;;3.80;1.97;;;;;;;2.78;77.57;98371.09;6137314;23;20226;-84
2021/01/19 02:41:53;;;;;;;3.10;2.00;;;;;;;2.79;77.76;98370.22;6139487;23;20186;-83
2021/01/19 02:44:21;;;;;;;4.87;2.30;;;;;;;2.79;77.62;98366.81;6131984;23;20222;-84
2021/01/19 02:46:50;;;;;;;4.40;2.13;;;;;;;2.76;77.67;98352.22;6138192;23;20191;-83
2021/01/19 02:49:17;;;;;;;5.33;2.17;;;;;;;2.75;77.55;98358.22;6136827;23;20187;-83
2021/01/19 02:51:44;;;;;;;3.40;1.90;;;;;;;2.75;77.66;98347.91;6137283;23;20187;-85
2021/01/19 02:54:10;;;;;;;5.07;1.90;;;;;;;2.77;77.58;98348.75;6133559;23;20217;-85
2021/01/19 02:56:44;;;;;;;4.10;2.10;;;;;;;2.74;77.50;98341.06;6137002;23;20187;-85
2021/01/19 02:59:14;;;;;;;4.20;2.10;;;;;;;2.77;77.45;98343.63;6138290;23;20270;-83
2021/01/19 03:01:46;;;;;;;6.87;2.20;;;;;;;2.72;77.44;98332.50;6136328;23;20194;-84
2021/01/19 03:04:13;;;;;;;3.23;2.20;;;;;;;2.72;77.68;98329.03;6138265;23;20186;-84
2021/01/19 03:06:42;;;;;;;4.37;2.17;;;;;;;2.70;77.45;98336.78;6137952;23;20283;-84
2021/01/19 03:09:08;;;;;;;5.47;2.53;;;;;;;2.71;77.29;98330.78;6137608;23;20577;-84
2021/01/19 03:11:36;;;;;;;6.27;4.33;;;;;;;2.70;77.53;98323.88;6136473;23;20262;-84
2021/01/19 03:14:02;;;;;;;6.90;3.00;;;;;;;2.73;77.54;98326.47;6134821;23;20632;-83
2021/01/19 03:16:29;;;;;;;2.50;1.80;;;;;;;2.73;77.31;98335.91;6138405;23;20191;-83
2021/01/19 03:18:55;;;;;;;3.87;2.13;;;;;;;2.69;77.55;98335.94;6132368;23;20179;-84
2021/01/19 03:21:21;;;;;;;5.00;2.20;;;;;;;2.71;77.20;98328.19;6133777;23;20211;-85
2021/01/19 03:23:48;;;;;;;6.30;2.73;;;;;;;2.67;76.82;98329.94;6135536;23;20190;-85
2021/01/19 03:26:15;;;;;;;5.30;2.10;;;;;;;2.65;76.94;98328.22;6136596;23;20253;-83
2021/01/19 03:28:41;;;;;;;4.50;1.70;;;;;;;2.58;77.03;98326.53;6134683;23;20195;-85
2021/01/19 03:31:07;;;;;;;6.33;3.07;;;;;;;2.58;76.59;98317.09;6135082;23;20208;-82
2021/01/19 03:33:33;;;;;;;3.47;2.00;;;;;;;2.56;76.76;98323.13;6134010;23;20184;-85
2021/01/19 03:36:00;;;;;;;5.67;2.73;;;;;;;2.57;76.65;98324.81;6134315;23;20192;-83
2021/01/19 03:38:26;;;;;;;2.60;1.67;;;;;;;2.45;76.77;98326.56;6134712;23;20194;-82
2021/01/19 03:40:53;;;;;;;4.03;2.03;;;;;;;2.46;76.54;98328.31;6135116;23;20210;-83
2021/01/19 03:43:19;;;;;;;3.43;1.70;;;;;;;2.46;76.52;98318.00;6134905;23;20669;-82
2021/01/19 03:45:45;;;;;;;3.20;1.80;;;;;;;2.46;76.50;98318.00;6136598;23;20267;-84
2021/01/19 03:48:12;;;;;;;3.50;1.57;;;;;;;2.42;76.40;98326.56;6133784;23;20187;-84
2021/01/19 03:50:38;;;;;;;3.87;1.87;;;;;;;2.38;76.23;98314.56;6134893;23;20218;-85
2021/01/19 03:53:04;;;;;;;4.53;1.80;;;;;;;2.39;76.63;98308.59;6134236;23;20272;-84
2021/01/19 03:55:31;;;;;;;6.33;2.00;;;;;;;2.41;76.32;98314.56;6137817;23;20319;-84
2021/01/19 03:57:58;;;;;;;6.57;2.10;;;;;;;2.39;76.49;98311.16;6135651;23;20881;-84
2021/01/19 04:00:24;;;;;;;3.93;2.10;;;;;;;2.38;76.63;98309.44;6137998;23;20529;-83
2021/01/19 04:02:50;;;;;;;4.53;2.40;;;;;;;2.30;76.60;98309.47;6138258;23;20183;-83
2021/01/19 04:05:17;;;;;;;4.47;1.70;;;;;;;2.26;76.73;98309.47;6137502;23;20295;-84
2021/01/19 04:07:43;;;;;;;3.23;1.83;;;;;;;2.21;76.29;98306.06;6139125;23;20187;-82
2021/01/19 04:10:11;;;;;;;4.33;1.87;;;;;;;2.21;76.62;98300.91;6128113;23;20321;-84
2021/01/19 04:12:37;;;;;;;4.17;1.67;;;;;;;2.19;76.60;98302.59;6138562;23;20265;-83
2021/01/19 04:15:06;;;;;;;5.00;1.73;;;;;;;2.17;76.78;98309.47;6136835;23;20207;-83
2021/01/19 04:17:32;;;;;;;6.07;1.53;;;;;;;2.10;76.64;98309.50;6137285;23;20187;-83
2021/01/19 04:19:59;;;;;;;2.60;1.40;;;;;;;2.07;76.80;98301.78;6135495;23;20208;-83
2021/01/19 04:22:25;;;;;;;4.20;1.50;;;;;;;2.05;77.17;98300.94;6138212;23;20191;-84
2021/01/19 04:24:51;;;;;;;3.60;1.70;;;;;;;2.01;77.27;98282.94;6134340;23;20795;-83
2021/01/19 04:27:18;;;;;;;3.40;1.70;;;;;;;1.94;77.14;98282.09;6135992;23;20276;-85
2021/01/19 04:29:44;;;;;;;2.37;1.20;;;;;;;1.85;77.42;98282.13;6139093;23;20215;-84
2021/01/19 04:32:12;;;;;;;4.23;1.70;;;;;;;1.81;77.63;98280.41;6136866;23;20191;-83
2021/01/19 04:34:38;;;;;;;4.97;1.80;;;;;;;1.79;77.43;98279.56;6135059;23;20218;-84
2021/01/19 04:37:04;;;;;;;4.07;2.10;;;;;;;1.78;77.67;98280.41;6136344;23;20183;-84
2021/01/19 04:39:30;;;;;;;4.93;1.53;;;;;;;1.77;77.67;98279.56;6138480;23;20212;-84
2021/01/19 04:41:57;;;;;;;5.17;1.77;;;;;;;1.79;77.54;98287.28;6135251;23;20823;-84
2021/01/19 04:44:24;;;;;;;3.03;1.63;;;;;;;1.81;77.51;98275.28;6138735;23;20184;-84
2021/01/19 04:46:51;;;;;;;2.57;1.60;;;;;;;1.83;77.57;98273.53;6137980;23;20215;-84
2021/01/19 04:49:20;;;;;;;3.70;1.60;;;;;;;1.85;77.60;98271.81;6139935;23;20275;-84
2021/01/19 04:51:47;;;;;;;4.73;1.47;;;;;;;1.88;77.53;98276.97;6139841;23;20183;-84
2021/01/19 04:54:16;;;;;;;4.00;1.40;;;;;;;1.93;77.40;98272.69;6136754;23;20878;-83
2021/01/19 04:56:49;;;;;;;5.03;1.80;;;;;;;1.96;76.92;98280.38;6137498;23;20725;-84
2021/01/19 04:59:21;;;;;;;3.03;1.80;;;;;;;1.95;76.92;98262.38;6138111;23;20183;-83
2021/01/19 05:02:05;;;;;;;4.50;1.90;;;;;;;1.95;76.99;98268.38;6139726;23;20231;-84
2021/01/19 05:04:47;;;;;;;5.90;1.80;;;;;;;1.96;77.11;98264.94;6138053;23;20259;-83
2021/01/19 05:07:29;;;;;;;5.20;1.80;;;;;;;1.96;77.13;98274.38;6139716;23;21071;-84
2021/01/19 05:10:04;;;;;;;4.63;1.93;;;;;;;1.96;76.93;98264.94;6139478;23;20212;-83
2021/01/19 05:12:34;;;;;;;3.37;1.70;;;;;;;2.03;77.06;98271.78;6138011;23;20942;-84
2021/01/19 05:15:02;;;;;;;5.10;1.33;;;;;;;2.02;76.96;98270.09;6137994;23;20786;-84
2021/01/19 05:17:30;;;;;;;3.47;1.30;;;;;;;1.97;76.93;98258.94;6138113;23;20198;-85
2021/01/19 05:19:57;;;;;;;3.17;1.57;;;;;;;1.99;77.02;98259.78;6136534;23;20223;-83
2021/01/19 05:22:23;;;;;;;4.93;1.40;;;;;;;1.98;76.90;98263.22;6137107;23;20194;-84
2021/01/19 05:24:50;;;;;;;4.40;1.63;;;;;;;1.98;77.09;98254.66;6136999;23;20183;-85
2021/01/19 05:27:16;;;;;;;1.87;1.63;;;;;;;1.99;76.80;98258.94;6135996;23;20191;-85
2021/01/19 05:29:42;;;;;;;2.70;1.50;;;;;;;1.98;76.73;98245.19;6138424;23;20221;-83
2021/01/19 05:32:09;;;;;;;3.47;1.40;;;;;;;2.00;76.64;98235.75;6136601;23;20682;-81
2021/01/19 05:34:36;;;;;;;2.23;1.40;;;;;;;2.08;76.63;98239.19;6136219;23;20742;-84
2021/01/19 05:37:03;;;;;;;2.07;1.30;;;;;;;2.06;76.56;98234.88;6138637;23;20274;-84
2021/01/19 05:39:30;;;;;;;3.93;1.50;;;;;;;2.03;76.22;98238.34;6134727;23;20237;-83
2021/01/19 05:41:56;;;;;;;3.57;1.53;;;;;;;2.06;76.28;98230.63;6137424;23;20188;-84
2021/01/19 05:44:24;;;;;;;2.93;1.40;;;;;;;2.03;76.56;98225.47;6137674;23;20222;-83
2021/01/19 05:46:53;;;;;;;3.50;1.70;;;;;;;2.08;76.36;98217.75;6138188;23;20219;-83
2021/01/19 05:49:21;;;;;;;2.90;1.40;;;;;;;2.07;76.37;98216.88;6136152;23;20230;-83
2021/01/19 05:51:49;;;;;;;2.67;1.60;;;;;;;2.09;76.15;98215.16;6137586;23;20188;-83
2021/01/19 05:54:24;;;;;;;3.97;1.67;;;;;;;2.12;75.85;98220.28;6138070;23;20207;-82
2021/01/19 05:56:50;;;;;;;2.00;1.70;;;;;;;2.13;76.53;98208.28;6139464;23;20186;-83
2021/01/19 05:59:28;;;;;;;2.97;1.67;;;;;;;2.15;76.17;98208.28;6135820;23;20188;-83
2021/01/19 06:01:59;;;;;;;2.53;1.63;;;;;;;2.18;76.23;98214.25;6135460;23;20196;-84
2021/01/19 06:04:36;;;;;;;2.73;1.50;;;;;;;2.20;75.90;98204.81;6136295;23;20194;-84
2021/01/19 06:07:04;;;;;;;5.37;1.90;;;;;;;2.18;76.09;98208.28;6140815;23;20258;-84
2021/01/19 06:09:32;;;;;;;3.20;1.47;;;;;;;2.14;76.11;98204.00;6138952;23;20207;-85
2021/01/19 06:11:58;;;;;;;7.83;1.80;;;;;;;2.18;75.97;98195.41;6141262;23;20195;-84
2021/01/19 06:14:26;;;;;;;2.60;1.63;;;;;;;2.17;76.14;98193.69;6141249;23;20208;-84
2021/01/19 06:17:02;;;;;;;3.00;1.60;;;;;;;2.15;76.23;98192.81;6141451;23;20659;-84
2021/01/19 06:19:29;;;;;;;3.33;1.50;;;;;;;2.08;76.20;98187.72;6140043;23;20207;-83
2021/01/19 06:21:56;;;;;;;3.43;1.70;;;;;;;2.09;76.09;98179.13;6139534;23;20589;-83
2021/01/19 06:24:36;;;;;;;3.77;1.67;;;;;;;2.10;75.53;98185.16;6137968;23;20194;-84
2021/01/19 06:27:04;;;;;;;2.67;1.63;;;;;;;2.12;76.17;98184.25;6140894;23;20187;-85
2021/01/19 06:29:31;;;;;;;5.07;1.80;;;;;;;2.19;75.82;98181.66;6139846;23;21143;-84
2021/01/19 06:31:59;;;;;;;3.70;2.10;;;;;;;2.24;75.87;98182.50;6142406;23;20192;-88
2021/01/19 06:34:30;;;;;;;3.10;1.73;;;;;;;2.24;75.64;98172.19;6141624;23;20466;-82
2021/01/19 06:36:56;;;;;;;6.10;1.90;;;;;;;2.31;75.59;98174.72;6136067;23;20206;-84
2021/01/19 06:39:35;;;;;;;2.97;2.00;;;;;;;2.25;74.81;98168.78;6139098;23;20247;-83
2021/01/19 06:42:12;;;;;;;4.23;1.67;;;;;;;2.27;75.11;98177.34;6137167;23;20187;-84
2021/01/19 06:44:44;;;;;;;2.60;2.10;;;;;;;2.27;74.97;98167.03;6141251;23;20215;-84
2021/01/19 06:47:11;;;;;;;2.80;1.70;;;;;;;2.27;74.99;98157.59;6139815;23;20183;-84
2021/01/19 06:49:39;;;;;;;4.73;1.77;;;;;;;2.37;74.96;98154.97;6139667;23;20663;-84
2021/01/19 06:52:07;;;;;;;2.97;1.93;;;;;;;2.39;74.52;98166.09;6141611;23;20590;-84
2021/01/19 06:55:06;;;;;;;3.47;1.63;;;;;;;2.36;74.40;98156.69;6141798;23;20307;-84
2021/01/19 06:57:38;;;;;;;4.43;1.47;;;;;;;2.34;74.43;98158.44;6141737;23;20528;-85
2021/01/19 07:00:08;;;;;;;4.33;1.67;;;;;;;2.34;74.38;98153.28;6141798;23;20250;-84
2021/01/19 07:02:36;;;;;;;3.23;1.80;;;;;;;2.31;74.52;98150.72;6140546;23;20274;-82
2021/01/19 07:05:09;;;;;;;2.67;1.43;;;;;;;2.24;73.56;98147.34;6140038;23;20286;-83
2021/01/19 07:07:46;;;;;;;5.13;1.70;;;;;;;2.20;73.89;98147.34;6140968;23;20674;-82
2021/01/19 07:10:19;;;;;;;2.60;1.60;;;;;;;2.06;73.29;98138.00;6140973;23;20207;-82
2021/01/19 07:13:07;;;;;;;3.53;2.00;;;;;;;2.08;73.64;98132.84;6141770;23;20183;-83
2021/01/19 07:16:06;;;;;;;2.60;1.73;;;;;;;2.12;73.65;98137.94;6141511;23;20294;-82
2021/01/19 07:18:45;;;;;;;2.73;1.80;;;;;;;2.20;73.60;98137.91;6140433;23;20643;-82
2021/01/19 07:21:12;;;;;;;5.60;2.20;;;;;;;2.24;74.08;98138.75;6141330;23;20314;-84
2021/01/19 07:24:23;;;;;;;4.40;1.90;;;;;;;2.23;73.32;98134.47;6140012;23;20246;-83
2021/01/19 07:26:52;;;;;;;3.17;1.60;;;;;;;2.21;73.61;98133.63;6049892;23;20250;-84
2021/01/19 07:29:20;;;;;;;4.17;1.83;;;;;;;2.22;73.46;98130.19;6118615;23;20206;-83
2021/01/19 07:31:47;;;;;;;2.67;1.87;;;;;;;2.17;73.39;98135.38;6139929;23;20215;-83
2021/01/19 07:34:13;;;;;;;4.97;1.70;;;;;;;2.13;73.41;98125.94;6141254;23;20234;-83
2021/01/19 07:36:39;;;;;;;5.60;1.93;;;;;;;2.13;73.38;98120.78;6141402;23;20187;-83
2021/01/19 07:39:13;;;;;;;5.73;2.80;;;;;;;2.15;73.23;98121.66;6140620;23;20184;-84
2021/01/19 07:41:39;;;;;;;6.17;3.10;;;;;;;2.20;73.49;98121.59;6141249;23;20218;-83
2021/01/19 07:44:07;;;;;;;5.77;3.37;;;;;;;2.24;73.26;98118.16;6137789;23;20183;-85
2021/01/19 07:46:33;;;;;;;4.90;2.03;;;;;;;2.28;73.30;98127.59;6142295;23;20271;-83
2021/01/19 07:49:00;;;;;;;4.97;2.53;;;;;;;2.25;72.89;98117.31;6141260;23;20816;-84
2021/01/19 07:51:38;;;;;;;3.70;2.23;;;;;;;2.19;72.28;98112.16;6142644;23;20212;-84
2021/01/19 07:54:05;;;;;;;4.20;2.60;;;;;;;2.29;72.87;98116.41;6142895;23;20708;-85
2021/01/19 07:56:32;;;;;;;7.90;3.50;;;;;;;2.34;72.75;98117.25;6139202;23;20892;-83
2021/01/19 07:58:59;;;;;;;5.70;2.50;;;;;;;2.30;72.51;98113.00;6140599;23;20192;-84
2021/01/19 08:01:27;;;;;;;5.07;2.77;;;;;;;2.27;72.30;98105.28;6142537;23;20203;-84
2021/01/19 08:03:54;;;;;;;6.10;2.30;;;;;;;2.33;72.86;98099.22;6142846;23;20188;-83
2021/01/19 08:06:30;;;;;;;8.67;4.27;;;;;;;2.29;72.01;98090.66;6140066;23;20203;-84
2021/01/19 08:08:57;;;;;;;4.07;2.63;;;;;;;2.34;72.58;98090.66;6140597;23;20646;-84
2021/01/19 08:11:23;;;;;;;6.50;3.47;;;;;;;2.38;72.45;98080.31;6140156;23;20351;-84
2021/01/19 08:13:58;;;;;;;6.10;3.57;;;;;;;2.38;72.54;98082.88;6140475;23;20310;-84
2021/01/19 08:16:31;;;;;;;2.90;1.90;;;;;;;2.44;72.05;98082.00;6142211;23;20190;-84
2021/01/19 08:19:09;;;;;;;3.80;1.80;;;;;;;2.50;71.73;98082.81;6144672;23;20202;-83
2021/01/19 08:21:37;;;;;;;7.33;3.07;;;;;;;2.55;72.16;98074.19;6143628;23;20222;-84
2021/01/19 08:24:06;;;;;;;3.40;1.90;;;;;;;2.59;71.92;98070.72;6142473;23;20584;-83
2021/01/19 08:26:32;;;;;;;4.27;2.13;;;;;;;2.58;72.06;98069.03;6141083;23;20183;-84
2021/01/19 08:29:00;;;;;;;3.63;2.33;;;;;;;2.58;71.33;98054.41;6139997;23;20258;-83
2021/01/19 08:31:29;;;;;;;10.33;2.90;;;;;;;2.51;71.25;98051.03;6139859;23;20230;-84
2021/01/19 08:34:00;;;;;;;2.87;1.80;;;;;;;2.59;71.48;98057.84;6139529;23;20196;-85
2021/01/19 08:36:27;;;;;;;4.30;2.40;;;;;;;2.67;71.59;98069.78;6141109;23;20299;-85
2021/01/19 08:38:55;;;;;;;3.53;2.30;;;;;;;2.62;71.47;98065.56;6143474;23;20199;-85
2021/01/19 08:41:21;;;;;;;3.83;1.60;;;;;;;2.58;70.82;98063.88;6142363;23;20235;-85
2021/01/19 08:43:55;;;;;;;3.87;1.50;;;;;;;2.44;70.45;98064.81;6140837;23;20183;-86
2021/01/19 08:46:21;;;;;;;3.37;1.70;;;;;;;2.56;71.20;98056.16;6141788;23;21057;-85
2021/01/19 08:48:49;;;;;;;3.80;1.80;;;;;;;2.61;71.30;98050.94;6140858;23;20581;-85
2021/01/19 08:51:23;;;;;;;2.23;1.50;;;;;;;2.55;70.26;98054.44;6140944;23;20203;-86
2021/01/19 08:53:49;;;;;;;2.00;1.33;;;;;;;2.61;70.60;98043.22;6140050;23;20840;-86
2021/01/19 08:56:20;;;;;;;3.63;1.80;;;;;;;2.56;70.60;98045.00;6139006;23;20192;-84
2021/01/19 08:58:46;;;;;;;4.57;1.80;;;;;;;2.59;70.75;98029.50;6142729;23;20198;-84
2021/01/19 09:01:13;;;;;;;2.17;1.60;;;;;;;2.56;70.97;98029.56;6138701;23;20203;-83
2021/01/19 09:03:39;;;;;;;4.03;1.80;;;;;;;2.65;70.57;98032.06;6140036;23;21024;-84
2021/01/19 09:06:08;;;;;;;4.07;1.73;;;;;;;2.73;70.28;98021.69;6141485;23;20199;-83
2021/01/19 09:08:38;;;;;;;4.70;2.00;;;;;;;2.76;70.79;98035.38;6142098;23;20539;-83
2021/01/19 09:11:06;;;;;;;4.40;2.20;;;;;;;2.76;70.26;98024.22;6142844;23;20211;-84
2021/01/19 09:13:33;;;;;;;3.30;1.80;;;;;;;2.79;69.54;98017.31;6140600;23;20192;-84
2021/01/19 09:15:59;;;;;;;5.77;2.33;;;;;;;2.69;69.65;98013.13;6139922;23;20222;-85
2021/01/19 09:18:25;;;;;;;5.00;1.87;;;;;;;2.72;69.72;98005.38;6141225;23;20195;-84
2021/01/19 09:21:02;;;;;;;3.33;1.80;;;;;;;2.71;69.54;97998.50;6138656;23;20705;-83
2021/01/19 09:23:36;;;;;;;4.00;2.37;;;;;;;2.77;69.62;98001.00;6141141;23;20187;-82
2021/01/19 09:26:05;;;;;;;5.33;2.80;;;;;;;2.85;69.81;98001.81;6141422;23;20187;-83
2021/01/19 09:28:33;;;;;;;4.27;2.67;;;;;;;2.85;69.39;98001.81;6142006;23;20663;-83
2021/01/19 09:31:12;;;;;;;4.50;2.33;;;;;;;2.84;68.59;97988.94;6139089;23;20216;-84
2021/01/19 09:33:39;;;;;;;5.53;2.20;;;;;;;2.91;69.35;97989.75;6141550;23;20183;-82
2021/01/19 09:36:07;;;;;;;4.63;2.13;;;;;;;2.94;69.29;97981.94;6140034;23;20211;-83
2021/01/19 09:38:33;;;;;;;4.80;2.30;;;;;;;2.98;69.09;97979.34;6142149;23;20187;-83
2021/01/19 09:41:01;;;;;;;4.10;2.10;;;;;;;2.94;68.68;97979.38;6140619;23;20208;-82
2021/01/19 09:43:28;;;;;;;5.67;1.97;;;;;;;2.96;68.64;97975.94;6140885;23;20234;-83
2021/01/19 09:45:58;;;;;;;4.93;2.10;;;;;;;2.93;68.53;97964.81;6141986;23;20215;-84
2021/01/19 09:48:26;;;;;;;4.03;2.43;;;;;;;2.92;68.55;97965.66;6142346;23;20214;-83
2021/01/19 09:50:53;;;;;;;4.00;2.10;;;;;;;3.05;68.46;97962.06;6140748;23;20215;-84
2021/01/19 09:53:26;;;;;;;4.87;2.23;;;;;;;3.05;68.04;97956.91;6139429;23;20682;-84
2021/01/19 09:55:52;;;;;;;4.87;2.60;;;;;;;3.09;68.26;97948.31;6141358;23;20231;-83
2021/01/19 09:58:23;;;;;;;6.87;2.67;;;;;;;3.04;67.69;97942.34;6138165;23;20198;-84
2021/01/19 10:00:49;;;;;;;4.70;2.40;;;;;;;3.18;68.45;97937.00;6140465;23;20302;-83
2021/01/19 10:03:17;;;;;;;7.00;2.33;;;;;;;3.13;68.27;97929.34;6140004;23;20798;-82
2021/01/19 10:05:43;;;;;;;5.60;3.00;;;;;;;3.25;67.98;97934.34;6140453;23;20263;-82
2021/01/19 10:08:10;;;;;;;3.37;2.40;;;;;;;3.36;67.61;97926.47;6141859;23;21022;-82
2021/01/19 10:10:37;;;;;;;4.20;2.43;;;;;;;3.30;67.62;97917.97;6139820;23;20204;-82
2021/01/19 10:13:05;;;;;;;6.27;2.63;;;;;;;3.31;67.10;97912.81;6140562;23;20187;-83
2021/01/19 10:15:32;;;;;;;5.93;2.37;;;;;;;3.31;67.14;97917.06;6141032;23;20207;-82
2021/01/19 10:17:59;;;;;;;5.47;2.57;;;;;;;3.22;67.59;97912.91;6141036;23;20188;-82
2021/01/19 10:20:32;;;;;;;3.83;2.20;;;;;;;3.27;67.02;97896.53;6133320;23;20702;-83
2021/01/19 10:22:58;;;;;;;4.50;2.57;;;;;;;3.33;66.99;97895.59;6140600;23;20695;-84
2021/01/19 10:25:28;;;;;;;6.23;3.23;;;;;;;3.36;66.65;97894.69;6140447;23;20314;-83
2021/01/19 10:27:56;;;;;;;5.87;2.80;;;;;;;3.39;66.72;97889.50;6141036;23;20210;-84
2021/01/19 10:30:27;;;;;;;7.23;3.27;;;;;;;3.53;66.86;97886.69;6140412;23;20242;-83
2021/01/19 10:32:55;;;;;;;4.50;3.33;;;;;;;3.60;66.81;97878.88;6141225;23;20187;-82
2021/01/19 10:35:30;;;;;;;6.50;3.30;;;;;;;3.64;66.53;97874.53;6139737;23;20211;-83
2021/01/19 10:37:58;;;;;;;3.73;1.77;;;;;;;3.56;65.77;97866.88;6141880;23;20541;-83
2021/01/19 10:40:26;;;;;;;5.00;3.53;;;;;;;3.55;66.07;97860.03;6140549;23;20555;-84
2021/01/19 10:42:52;;;;;;;4.70;3.37;;;;;;;3.52;66.10;97859.22;6138350;23;20509;-83
2021/01/19 10:45:24;;;;;;;5.03;3.17;;;;;;;3.47;65.54;97851.53;6141522;23;20266;-84
2021/01/19 10:47:50;;;;;;;6.20;3.40;;;;;;;3.50;66.47;97843.75;6140568;23;20202;-82
2021/01/19 10:50:18;;;;;;;4.27;2.80;;;;;;;3.51;65.96;97842.91;6138089;23;20315;-84
2021/01/19 10:52:52;;;;;;;4.97;3.10;;;;;;;3.56;65.88;97840.25;6140315;23;20202;-82
2021/01/19 10:55:18;;;;;;;6.20;2.73;;;;;;;3.51;65.68;97827.44;6140940;23;20235;-84
2021/01/19 10:57:45;;;;;;;5.40;3.33;;;;;;;3.62;65.86;97820.38;6141060;23;20214;-83
2021/01/19 11:00:12;;;;;;;5.70;3.20;;;;;;;3.67;66.25;97821.13;6138268;23;20261;-84
2021/01/19 11:02:39;;;;;;;4.53;3.07;;;;;;;3.73;66.22;97816.75;6141310;23;20214;-84
2021/01/19 11:05:06;;;;;;;6.03;2.97;;;;;;;3.65;65.44;97802.25;6136960;23;20215;-83
2021/01/19 11:07:33;;;;;;;7.13;3.50;;;;;;;3.67;65.51;97795.31;6139477;23;20188;-82
2021/01/19 11:10:00;;;;;;;7.33;3.17;;;;;;;3.70;65.57;97786.72;6137497;23;20211;-81
2021/01/19 11:12:26;;;;;;;8.33;3.30;;;;;;;3.67;65.95;97786.75;6139057;23;20226;-83
2021/01/19 11:14:53;;;;;;;4.57;2.93;;;;;;;3.70;65.91;97772.97;6136965;23;20740;-83
2021/01/19 11:17:19;;;;;;;7.20;3.23;;;;;;;3.69;66.10;97768.66;6139035;23;20195;-84
2021/01/19 11:19:46;;;;;;;5.17;2.90;;;;;;;3.71;66.18;97772.06;6135814;23;20207;-83
2021/01/19 11:22:12;;;;;;;5.07;2.83;;;;;;;3.64;66.09;97766.19;6141141;23;20403;-83
2021/01/19 11:24:39;;;;;;;5.07;3.20;;;;;;;3.58;66.16;97761.13;6110751;23;20267;-83
2021/01/19 11:27:06;;;;;;;4.43;2.83;;;;;;;3.48;66.98;97758.69;6137419;23;20192;-84
2021/01/19 11:29:32;;;;;;;6.10;3.13;;;;;;;3.50;66.85;97752.66;6135642;23;20215;-84
2021/01/19 11:32:00;;;;;;;6.47;2.87;;;;;;;3.45;66.98;97756.16;6137322;23;20270;-83
2021/01/19 11:34:26;;;;;;;5.17;3.20;;;;;;;3.45;67.71;97745.00;6137900;23;20696;-84
2021/01/19 11:36:52;;;;;;;4.80;3.07;;;;;;;3.43;68.13;97744.16;6140475;23;20187;-84
2021/01/19 11:39:18;;;;;;;6.10;3.00;;;;;;;3.40;68.41;97737.34;6137181;23;20234;-82
2021/01/19 11:41:46;;;;;;;5.77;3.33;;;;;;;3.36;68.26;97735.66;6135592;23;20466;-82
2021/01/19 11:44:13;;;;;;;6.30;3.43;;;;;;;3.25;69.29;97730.72;6140168;23;20198;-82
2021/01/19 11:46:39;;;;;;;6.80;3.50;;;;;;;3.34;68.99;97741.75;6138216;23;20278;-81
2021/01/19 11:49:07;;;;;;;7.37;3.90;;;;;;;3.32;69.37;97734.03;6139791;23;20187;-82